sensor_id;sensor_type;location;lat;lon;timestamp;pressure;altitude;pressure_sealevel;temperature;humidity
75886;BME280;64561;44.018;10.144;2023-02-15T00:02:26;103128.78;;;5.26;87.35
75886;BME280;64561;44.018;10.144;2023-02-15T00:04:53;103129.03;;;5.29;85.20
75886;BME280;64561;44.018;10.144;2023-02-15T00:07:22;103132.00;;;5.23;87.56
75886;BME280;64561;44.018;10.144;2023-02-15T00:09:49;103132.88;;;5.24;86.98
75886;BME280;64561;44.018;10.144;2023-02-15T00:12:16;103139.31;;;5.20;87.06
75886;BME280;64561;44.018;10.144;2023-02-15T00:14:42;103139.97;;;5.18;87.43
75886;BME280;64561;44.018;10.144;2023-02-15T00:17:09;103137.28;;;5.16;88.17
75886;BME280;64561;44.018;10.144;2023-02-15T00:19:36;103134.00;;;5.07;87.48
75886;BME280;64561;44.018;10.144;2023-02-15T00:22:03;103145.91;;;5.08;89.16
75886;BME280;64561;44.018;10.144;2023-02-15T00:24:30;103142.13;;;5.13;88.09
75886;BME280;64561;44.018;10.144;2023-02-15T00:26:57;103138.19;;;5.07;86.80
75886;BME280;64561;44.018;10.144;2023-02-15T00:29:24;103141.75;;;5.09;85.96
75886;BME280;64561;44.018;10.144;2023-02-15T00:31:51;103133.00;;;5.15;86.36
75886;BME280;64561;44.018;10.144;2023-02-15T00:34:21;103137.81;;;5.12;87.64
75886;BME280;64561;44.018;10.144;2023-02-15T00:36:49;103132.44;;;4.99;87.79
75886;BME280;64561;44.018;10.144;2023-02-15T00:39:16;103123.47;;;5.02;87.71
75886;BME280;64561;44.018;10.144;2023-02-15T00:41:46;103129.31;;;5.12;87.09
75886;BME280;64561;44.018;10.144;2023-02-15T00:44:14;103130.56;;;5.17;85.76
75886;BME280;64561;44.018;10.144;2023-02-15T00:46:41;103128.03;;;5.17;85.15
75886;BME280;64561;44.018;10.144;2023-02-15T00:49:09;103128.69;;;5.24;85.46
75886;BME280;64561;44.018;10.144;2023-02-15T00:51:37;103126.50;;;5.29;84.63
75886;BME280;64561;44.018;10.144;2023-02-15T00:54:04;103128.69;;;5.24;85.21
75886;BME280;64561;44.018;10.144;2023-02-15T00:56:31;103121.81;;;5.13;85.39
75886;BME280;64561;44.018;10.144;2023-02-15T00:58:58;103127.38;;;4.99;86.53
75886;BME280;64561;44.018;10.144;2023-02-15T01:01:24;103129.28;;;4.91;86.56
75886;BME280;64561;44.018;10.144;2023-02-15T01:03:52;103121.69;;;4.91;87.00
75886;BME280;64561;44.018;10.144;2023-02-15T01:06:20;103128.16;;;4.88;86.95
75886;BME280;64561;44.018;10.144;2023-02-15T01:08:47;103126.09;;;4.84;89.73
75886;BME280;64561;44.018;10.144;2023-02-15T01:11:17;103118.38;;;4.82;89.24
75886;BME280;64561;44.018;10.144;2023-02-15T01:13:53;103115.69;;;4.80;89.30
75886;BME280;64561;44.018;10.144;2023-02-15T01:16:21;103108.75;;;4.88;88.68
75886;BME280;64561;44.018;10.144;2023-02-15T01:18:48;103112.28;;;4.90;88.49
75886;BME280;64561;44.018;10.144;2023-02-15T01:21:17;103101.25;;;4.90;88.79
75886;BME280;64561;44.018;10.144;2023-02-15T01:23:45;103101.13;;;4.88;89.04
75886;BME280;64561;44.018;10.144;2023-02-15T01:26:12;103086.91;;;4.80;88.89
75886;BME280;64561;44.018;10.144;2023-02-15T01:28:42;103091.88;;;4.78;89.08
75886;BME280;64561;44.018;10.144;2023-02-15T01:31:12;103080.97;;;4.79;89.83
75886;BME280;64561;44.018;10.144;2023-02-15T01:33:39;103077.16;;;4.85;88.43
75886;BME280;64561;44.018;10.144;2023-02-15T01:36:08;103078.56;;;4.91;87.92
75886;BME280;64561;44.018;10.144;2023-02-15T01:38:37;103078.03;;;4.95;87.72
75886;BME280;64561;44.018;10.144;2023-02-15T01:41:06;103074.38;;;4.92;88.53
75886;BME280;64561;44.018;10.144;2023-02-15T01:43:56;103077.44;;;4.88;88.83
75886;BME280;64561;44.018;10.144;2023-02-15T01:46:33;103069.94;;;4.89;88.71
75886;BME280;64561;44.018;10.144;2023-02-15T01:49:14;103076.41;;;4.86;88.41
75886;BME280;64561;44.018;10.144;2023-02-15T01:51:43;103072.72;;;4.92;86.87
75886;BME280;64561;44.018;10.144;2023-02-15T01:54:21;103069.94;;;4.99;85.23
75886;BME280;64561;44.018;10.144;2023-02-15T01:57:00;103067.53;;;5.01;84.48
75886;BME280;64561;44.018;10.144;2023-02-15T01:59:31;103074.22;;;4.90;86.72
75886;BME280;64561;44.018;10.144;2023-02-15T02:02:00;103062.44;;;4.80;89.04
75886;BME280;64561;44.018;10.144;2023-02-15T02:05:03;103064.72;;;4.67;86.72
75886;BME280;64561;44.018;10.144;2023-02-15T02:07:36;103056.22;;;4.67;87.08
75886;BME280;64561;44.018;10.144;2023-02-15T02:10:06;103054.94;;;4.62;88.65
75886;BME280;64561;44.018;10.144;2023-02-15T02:12:34;103057.06;;;4.57;89.10
75886;BME280;64561;44.018;10.144;2023-02-15T02:15:02;103049.47;;;4.57;89.33
75886;BME280;64561;44.018;10.144;2023-02-15T02:18:03;103053.28;;;4.62;88.20
75886;BME280;64561;44.018;10.144;2023-02-15T02:35:02;103045.56;;;4.71;84.38
75886;BME280;64561;44.018;10.144;2023-02-15T02:37:48;103034.66;;;4.72;84.25
75886;BME280;64561;44.018;10.144;2023-02-15T02:43:26;103036.16;;;4.59;85.44
75886;BME280;64561;44.018;10.144;2023-02-15T02:46:24;103031.63;;;4.45;86.70
75886;BME280;64561;44.018;10.144;2023-02-15T02:48:54;103032.34;;;4.44;87.15
75886;BME280;64561;44.018;10.144;2023-02-15T02:51:21;103021.19;;;4.42;86.02
75886;BME280;64561;44.018;10.144;2023-02-15T02:53:54;103013.31;;;4.29;87.14
75886;BME280;64561;44.018;10.144;2023-02-15T02:56:27;103011.81;;;4.31;86.55
75886;BME280;64561;44.018;10.144;2023-02-15T02:59:06;103008.41;;;4.30;87.26
75886;BME280;64561;44.018;10.144;2023-02-15T03:01:45;103017.59;;;4.20;87.74
75886;BME280;64561;44.018;10.144;2023-02-15T03:04:18;103023.69;;;4.22;87.74
75886;BME280;64561;44.018;10.144;2023-02-15T03:06:52;103022.16;;;4.24;86.84
75886;BME280;64561;44.018;10.144;2023-02-15T03:09:29;103023.34;;;4.27;87.09
75886;BME280;64561;44.018;10.144;2023-02-15T03:12:14;103020.13;;;4.20;87.53
75886;BME280;64561;44.018;10.144;2023-02-15T03:14:48;103019.50;;;4.22;86.62
75886;BME280;64561;44.018;10.144;2023-02-15T03:17:19;103014.59;;;4.34;85.57
75886;BME280;64561;44.018;10.144;2023-02-15T03:19:48;103002.31;;;4.39;84.73
75886;BME280;64561;44.018;10.144;2023-02-15T03:22:22;103006.91;;;4.43;83.29
75886;BME280;64561;44.018;10.144;2023-02-15T03:24:56;103004.22;;;4.41;84.33
75886;BME280;64561;44.018;10.144;2023-02-15T03:27:27;102999.66;;;4.37;84.90
75886;BME280;64561;44.018;10.144;2023-02-15T03:30:02;102986.72;;;4.34;84.71
75886;BME280;64561;44.018;10.144;2023-02-15T03:32:30;102998.63;;;4.35;84.27
75886;BME280;64561;44.018;10.144;2023-02-15T03:35:01;103002.41;;;4.30;84.56
75886;BME280;64561;44.018;10.144;2023-02-15T03:37:39;103000.91;;;4.22;85.37
75886;BME280;64561;44.018;10.144;2023-02-15T03:40:22;102996.81;;;4.24;86.27
75886;BME280;64561;44.018;10.144;2023-02-15T03:45:57;103003.06;;;4.27;85.46
75886;BME280;64561;44.018;10.144;2023-02-15T03:48:33;103002.03;;;4.25;84.99
75886;BME280;64561;44.018;10.144;2023-02-15T03:51:05;102989.47;;;4.06;86.87
75886;BME280;64561;44.018;10.144;2023-02-15T03:53:54;102982.84;;;3.98;88.24
75886;BME280;64561;44.018;10.144;2023-02-15T03:56:21;102979.53;;;3.99;89.05
75886;BME280;64561;44.018;10.144;2023-02-15T03:58:48;102975.16;;;4.07;87.42
75886;BME280;64561;44.018;10.144;2023-02-15T04:01:38;102983.91;;;4.10;86.34
75886;BME280;64561;44.018;10.144;2023-02-15T04:04:29;102982.59;;;3.95;86.33
75886;BME280;64561;44.018;10.144;2023-02-15T04:07:02;102976.53;;;4.03;85.80
75886;BME280;64561;44.018;10.144;2023-02-15T04:09:29;102979.59;;;4.09;84.86
75886;BME280;64561;44.018;10.144;2023-02-15T04:12:14;102978.56;;;4.18;84.28
75886;BME280;64561;44.018;10.144;2023-02-15T04:14:41;102983.03;;;4.20;83.87
75886;BME280;64561;44.018;10.144;2023-02-15T04:17:27;102991.38;;;4.19;83.85
75886;BME280;64561;44.018;10.144;2023-02-15T04:19:54;102990.00;;;4.23;83.92
75886;BME280;64561;44.018;10.144;2023-02-15T04:22:39;102985.97;;;4.25;83.25
75886;BME280;64561;44.018;10.144;2023-02-15T04:25:25;102981.88;;;4.27;82.60
75886;BME280;64561;44.018;10.144;2023-02-15T04:27:54;102985.19;;;4.26;82.89
75886;BME280;64561;44.018;10.144;2023-02-15T04:30:24;102983.78;;;4.19;83.97
75886;BME280;64561;44.018;10.144;2023-02-15T04:32:53;102987.97;;;4.19;84.79
75886;BME280;64561;44.018;10.144;2023-02-15T04:35:21;102985.06;;;4.24;85.09
75886;BME280;64561;44.018;10.144;2023-02-15T04:37:48;102989.38;;;4.25;85.03
75886;BME280;64561;44.018;10.144;2023-02-15T04:40:16;102991.03;;;4.25;85.00
75886;BME280;64561;44.018;10.144;2023-02-15T04:42:48;102994.03;;;4.21;84.62
75886;BME280;64561;44.018;10.144;2023-02-15T04:45:16;102997.69;;;4.14;83.76
75886;BME280;64561;44.018;10.144;2023-02-15T04:47:43;102994.28;;;4.13;83.87
75886;BME280;64561;44.018;10.144;2023-02-15T04:50:11;102999.44;;;4.05;83.61
75886;BME280;64561;44.018;10.144;2023-02-15T04:52:38;103003.06;;;3.88;84.97
75886;BME280;64561;44.018;10.144;2023-02-15T04:55:05;103004.69;;;3.87;84.63
75886;BME280;64561;44.018;10.144;2023-02-15T04:57:32;103001.78;;;3.83;85.14
75886;BME280;64561;44.018;10.144;2023-02-15T04:59:59;103001.34;;;3.68;85.88
75886;BME280;64561;44.018;10.144;2023-02-15T05:02:26;103007.38;;;3.60;86.94
75886;BME280;64561;44.018;10.144;2023-02-15T05:04:53;103005.97;;;3.53;87.99
75886;BME280;64561;44.018;10.144;2023-02-15T05:07:20;103006.81;;;3.43;88.49
75886;BME280;64561;44.018;10.144;2023-02-15T05:09:47;103011.44;;;3.39;89.54
75886;BME280;64561;44.018;10.144;2023-02-15T05:12:14;103003.09;;;3.40;90.37
75886;BME280;64561;44.018;10.144;2023-02-15T05:14:41;103007.97;;;3.47;91.49
75886;BME280;64561;44.018;10.144;2023-02-15T05:17:08;103009.25;;;3.52;91.56
75886;BME280;64561;44.018;10.144;2023-02-15T05:19:35;103019.91;;;3.58;90.81
75886;BME280;64561;44.018;10.144;2023-02-15T05:22:02;103015.31;;;3.73;89.39
75886;BME280;64561;44.018;10.144;2023-02-15T05:24:29;103014.38;;;3.73;87.88
75886;BME280;64561;44.018;10.144;2023-02-15T05:27:14;103016.19;;;3.74;86.18
75886;BME280;64561;44.018;10.144;2023-02-15T05:30:00;103026.59;;;3.77;86.00
75886;BME280;64561;44.018;10.144;2023-02-15T05:32:27;103028.09;;;3.75;84.47
75886;BME280;64561;44.018;10.144;2023-02-15T05:34:54;103022.75;;;3.72;83.70
75886;BME280;64561;44.018;10.144;2023-02-15T05:37:21;103024.53;;;3.73;82.95
75886;BME280;64561;44.018;10.144;2023-02-15T05:39:47;103019.09;;;3.78;82.49
75886;BME280;64561;44.018;10.144;2023-02-15T05:42:14;103023.38;;;3.69;82.22
75886;BME280;64561;44.018;10.144;2023-02-15T05:44:41;103021.91;;;3.52;83.23
75886;BME280;64561;44.018;10.144;2023-02-15T05:47:08;103016.50;;;3.39;84.67
75886;BME280;64561;44.018;10.144;2023-02-15T05:49:35;103028.00;;;3.35;85.17
75886;BME280;64561;44.018;10.144;2023-02-15T05:52:03;103020.47;;;3.46;84.08
75886;BME280;64561;44.018;10.144;2023-02-15T05:54:30;103015.19;;;3.53;83.67
75886;BME280;64561;44.018;10.144;2023-02-15T05:56:56;103026.75;;;3.59;82.32
75886;BME280;64561;44.018;10.144;2023-02-15T05:59:23;103024.06;;;3.58;83.57
75886;BME280;64561;44.018;10.144;2023-02-15T06:01:50;103025.59;;;3.56;84.47
75886;BME280;64561;44.018;10.144;2023-02-15T06:04:17;103033.91;;;3.55;84.09
75886;BME280;64561;44.018;10.144;2023-02-15T06:06:44;103037.09;;;3.52;84.20
75886;BME280;64561;44.018;10.144;2023-02-15T06:09:12;103043.22;;;3.46;84.47
75886;BME280;64561;44.018;10.144;2023-02-15T06:11:39;103038.81;;;3.43;84.27
75886;BME280;64561;44.018;10.144;2023-02-15T06:14:06;103039.81;;;3.45;84.15
75886;BME280;64561;44.018;10.144;2023-02-15T06:16:33;103043.13;;;3.44;84.35
75886;BME280;64561;44.018;10.144;2023-02-15T06:19:00;103054.00;;;3.43;84.54
75886;BME280;64561;44.018;10.144;2023-02-15T06:21:28;103066.28;;;3.49;83.51
75886;BME280;64561;44.018;10.144;2023-02-15T06:23:55;103075.13;;;3.43;83.55
75886;BME280;64561;44.018;10.144;2023-02-15T06:26:22;103084.38;;;3.43;82.54
75886;BME280;64561;44.018;10.144;2023-02-15T06:28:49;103084.75;;;3.48;82.39
75886;BME280;64561;44.018;10.144;2023-02-15T06:31:15;103085.38;;;3.45;80.82
75886;BME280;64561;44.018;10.144;2023-02-15T06:33:42;103082.78;;;3.35;81.89
75886;BME280;64561;44.018;10.144;2023-02-15T06:36:09;103089.69;;;3.46;82.02
75886;BME280;64561;44.018;10.144;2023-02-15T06:38:36;103089.75;;;3.37;82.88
75886;BME280;64561;44.018;10.144;2023-02-15T06:41:03;103099.94;;;3.29;82.29
75886;BME280;64561;44.018;10.144;2023-02-15T06:43:30;103100.38;;;3.25;84.29
75886;BME280;64561;44.018;10.144;2023-02-15T06:45:57;103108.47;;;3.20;86.40
75886;BME280;64561;44.018;10.144;2023-02-15T06:48:24;103102.25;;;3.17;87.16
75886;BME280;64561;44.018;10.144;2023-02-15T06:50:52;103108.25;;;3.28;86.63
75886;BME280;64561;44.018;10.144;2023-02-15T06:53:19;103105.88;;;3.29;87.69
75886;BME280;64561;44.018;10.144;2023-02-15T06:55:45;103112.09;;;3.33;87.78
75886;BME280;64561;44.018;10.144;2023-02-15T06:58:12;103114.72;;;3.43;87.44
75886;BME280;64561;44.018;10.144;2023-02-15T07:00:39;103121.06;;;3.48;88.22
75886;BME280;64561;44.018;10.144;2023-02-15T07:03:06;103119.50;;;3.59;88.59
75886;BME280;64561;44.018;10.144;2023-02-15T07:05:33;103117.91;;;3.70;89.03
75886;BME280;64561;44.018;10.144;2023-02-15T07:08:01;103109.38;;;3.78;88.88
75886;BME280;64561;44.018;10.144;2023-02-15T07:10:28;103113.75;;;3.89;89.26
75886;BME280;64561;44.018;10.144;2023-02-15T07:12:55;103112.78;;;3.97;89.15
75886;BME280;64561;44.018;10.144;2023-02-15T07:15:23;103107.47;;;4.04;89.33
75886;BME280;64561;44.018;10.144;2023-02-15T07:17:51;103103.56;;;4.08;89.65
75886;BME280;64561;44.018;10.144;2023-02-15T07:20:22;103108.91;;;4.11;89.14
75886;BME280;64561;44.018;10.144;2023-02-15T07:22:49;103102.34;;;4.13;89.72
75886;BME280;64561;44.018;10.144;2023-02-15T07:25:16;103093.34;;;4.17;89.38
75886;BME280;64561;44.018;10.144;2023-02-15T07:27:44;103094.38;;;4.19;89.74
75886;BME280;64561;44.018;10.144;2023-02-15T07:30:14;103101.63;;;4.24;89.84
75886;BME280;64561;44.018;10.144;2023-02-15T07:32:41;103098.59;;;4.28;89.50
75886;BME280;64561;44.018;10.144;2023-02-15T07:35:30;103103.91;;;4.31;89.14
75886;BME280;64561;44.018;10.144;2023-02-15T07:37:57;103106.19;;;4.28;89.05
75886;BME280;64561;44.018;10.144;2023-02-15T07:40:24;103100.00;;;4.35;90.28
75886;BME280;64561;44.018;10.144;2023-02-15T07:42:51;103100.53;;;4.41;90.68
75886;BME280;64561;44.018;10.144;2023-02-15T07:45:21;103099.63;;;4.41;91.09
75886;BME280;64561;44.018;10.144;2023-02-15T07:47:48;103108.38;;;4.44;91.07
75886;BME280;64561;44.018;10.144;2023-02-15T07:50:15;103094.31;;;4.48;91.20
75886;BME280;64561;44.018;10.144;2023-02-15T07:52:42;103094.72;;;4.52;91.12
75886;BME280;64561;44.018;10.144;2023-02-15T07:55:09;103096.75;;;4.56;91.17
75886;BME280;64561;44.018;10.144;2023-02-15T07:57:46;103095.38;;;4.60;91.31
75886;BME280;64561;44.018;10.144;2023-02-15T08:00:15;103089.03;;;4.65;91.37
75886;BME280;64561;44.018;10.144;2023-02-15T08:02:48;103083.47;;;4.69;91.55
75886;BME280;64561;44.018;10.144;2023-02-15T08:05:15;103091.97;;;4.70;91.56
75886;BME280;64561;44.018;10.144;2023-02-15T08:07:44;103086.03;;;4.79;90.70
75886;BME280;64561;44.018;10.144;2023-02-15T08:10:11;103085.88;;;4.78;90.49
75886;BME280;64561;44.018;10.144;2023-02-15T08:12:58;103089.44;;;4.80;91.25
75886;BME280;64561;44.018;10.144;2023-02-15T08:15:24;103082.09;;;4.83;91.42
75886;BME280;64561;44.018;10.144;2023-02-15T08:17:51;103088.31;;;4.87;91.61
75886;BME280;64561;44.018;10.144;2023-02-15T08:20:18;103084.38;;;4.90;91.61
75886;BME280;64561;44.018;10.144;2023-02-15T08:22:45;103079.81;;;4.96;91.89
75886;BME280;64561;44.018;10.144;2023-02-15T08:25:12;103080.34;;;5.02;92.01
75886;BME280;64561;44.018;10.144;2023-02-15T08:27:39;103085.94;;;5.09;91.82
75886;BME280;64561;44.018;10.144;2023-02-15T08:30:06;103081.22;;;5.13;91.58
75886;BME280;64561;44.018;10.144;2023-02-15T08:32:34;103078.56;;;5.12;91.52
75886;BME280;64561;44.018;10.144;2023-02-15T08:35:01;103082.09;;;5.14;91.97
75886;BME280;64561;44.018;10.144;2023-02-15T08:37:28;103086.41;;;5.04;92.26
75886;BME280;64561;44.018;10.144;2023-02-15T08:39:55;103078.81;;;5.15;92.47
75886;BME280;64561;44.018;10.144;2023-02-15T08:42:21;103085.16;;;5.10;92.33
75886;BME280;64561;44.018;10.144;2023-02-15T08:44:48;103081.84;;;5.11;92.68
75886;BME280;64561;44.018;10.144;2023-02-15T08:47:17;103080.06;;;5.30;93.03
75886;BME280;64561;44.018;10.144;2023-02-15T08:49:43;103085.91;;;5.39;92.75
75886;BME280;64561;44.018;10.144;2023-02-15T08:52:10;103084.38;;;5.31;93.07
75886;BME280;64561;44.018;10.144;2023-02-15T08:54:37;103085.41;;;5.33;93.05
75886;BME280;64561;44.018;10.144;2023-02-15T08:57:04;103083.13;;;5.36;92.55
75886;BME280;64561;44.018;10.144;2023-02-15T08:59:30;103082.97;;;5.35;92.93
75886;BME280;64561;44.018;10.144;2023-02-15T09:01:57;103084.88;;;5.37;93.45
75886;BME280;64561;44.018;10.144;2023-02-15T09:04:24;103075.38;;;5.45;93.33
75886;BME280;64561;44.018;10.144;2023-02-15T09:06:51;103080.03;;;5.61;93.32
75886;BME280;64561;44.018;10.144;2023-02-15T09:09:19;103075.72;;;5.60;93.12
75886;BME280;64561;44.018;10.144;2023-02-15T09:11:48;103075.84;;;5.51;92.80
75886;BME280;64561;44.018;10.144;2023-02-15T09:14:23;103071.13;;;5.56;93.45
75886;BME280;64561;44.018;10.144;2023-02-15T09:16:52;103074.06;;;5.50;93.29
75886;BME280;64561;44.018;10.144;2023-02-15T09:19:20;103066.69;;;5.53;93.12
75886;BME280;64561;44.018;10.144;2023-02-15T09:21:48;103059.22;;;5.44;93.19
75886;BME280;64561;44.018;10.144;2023-02-15T09:24:16;103057.69;;;5.46;93.75
75886;BME280;64561;44.018;10.144;2023-02-15T09:26:45;103053.34;;;5.56;93.89
75886;BME280;64561;44.018;10.144;2023-02-15T09:29:13;103053.31;;;5.76;93.92
75886;BME280;64561;44.018;10.144;2023-02-15T09:31:43;103055.41;;;5.92;94.15
75886;BME280;64561;44.018;10.144;2023-02-15T09:34:12;103057.31;;;6.05;94.01
75886;BME280;64561;44.018;10.144;2023-02-15T09:36:40;103053.03;;;6.15;93.77
75886;BME280;64561;44.018;10.144;2023-02-15T09:39:14;103053.50;;;6.22;93.74
75886;BME280;64561;44.018;10.144;2023-02-15T09:45:06;103063.63;;;6.54;93.21
75886;BME280;64561;44.018;10.144;2023-02-15T09:48:05;103060.25;;;6.65;93.36
75886;BME280;64561;44.018;10.144;2023-02-15T09:51:31;103053.56;;;6.55;93.12
75886;BME280;64561;44.018;10.144;2023-02-15T09:56:45;103039.53;;;6.60;92.03
75886;BME280;64561;44.018;10.144;2023-02-15T09:59:35;103042.97;;;6.61;92.16
75886;BME280;64561;44.018;10.144;2023-02-15T10:10:25;103056.63;;;7.07;90.94
75886;BME280;64561;44.018;10.144;2023-02-15T10:13:06;103060.47;;;7.02;91.02
75886;BME280;64561;44.018;10.144;2023-02-15T10:18:29;103064.25;;;7.07;93.05
75886;BME280;64561;44.018;10.144;2023-02-15T10:23:58;103058.16;;;7.05;91.65
75886;BME280;64561;44.018;10.144;2023-02-15T10:26:36;103063.47;;;7.08;92.00
75886;BME280;64561;44.018;10.144;2023-02-15T10:29:37;103048.78;;;7.27;91.37
75886;BME280;64561;44.018;10.144;2023-02-15T10:34:40;103041.59;;;7.69;90.22
75886;BME280;64561;44.018;10.144;2023-02-15T10:59:30;103027.56;;;8.73;86.74
75886;BME280;64561;44.018;10.144;2023-02-15T11:02:12;103014.72;;;8.84;86.49
75886;BME280;64561;44.018;10.144;2023-02-15T11:07:41;102998.31;;;8.81;85.56
75886;BME280;64561;44.018;10.144;2023-02-15T11:12:44;102991.84;;;8.99;86.84
75886;BME280;64561;44.018;10.144;2023-02-15T11:17:56;102977.63;;;9.29;84.19
75886;BME280;64561;44.018;10.144;2023-02-15T11:22:52;102971.66;;;9.42;84.99
75886;BME280;64561;44.018;10.144;2023-02-15T11:25:31;102979.59;;;9.60;84.25
75886;BME280;64561;44.018;10.144;2023-02-15T11:28:00;102966.50;;;9.69;83.24
75886;BME280;64561;44.018;10.144;2023-02-15T11:30:55;102965.91;;;9.73;82.63
75886;BME280;64561;44.018;10.144;2023-02-15T11:33:27;102973.50;;;9.58;82.85
75886;BME280;64561;44.018;10.144;2023-02-15T11:36:09;102961.97;;;9.65;83.23
75886;BME280;64561;44.018;10.144;2023-02-15T11:38:39;102963.16;;;9.70;83.32
75886;BME280;64561;44.018;10.144;2023-02-15T11:41:11;102961.13;;;9.92;83.35
75886;BME280;64561;44.018;10.144;2023-02-15T11:43:58;102955.31;;;9.95;82.35
75886;BME280;64561;44.018;10.144;2023-02-15T11:46:29;102958.41;;;10.04;82.76
75886;BME280;64561;44.018;10.144;2023-02-15T11:48:56;102954.34;;;10.21;81.90
75886;BME280;64561;44.018;10.144;2023-02-15T11:51:22;102956.78;;;10.33;80.80
75886;BME280;64561;44.018;10.144;2023-02-15T11:53:50;102949.91;;;10.46;80.32
75886;BME280;64561;44.018;10.144;2023-02-15T11:56:25;102947.09;;;10.57;79.25
75886;BME280;64561;44.018;10.144;2023-02-15T11:58:57;102949.22;;;10.64;79.58
75886;BME280;64561;44.018;10.144;2023-02-15T12:06:54;102950.19;;;10.81;77.50
75886;BME280;64561;44.018;10.144;2023-02-15T12:12:40;102944.63;;;10.88;78.33
75886;BME280;64561;44.018;10.144;2023-02-15T12:15:10;102952.47;;;10.91;77.33
75886;BME280;64561;44.018;10.144;2023-02-15T12:17:48;102950.72;;;10.90;77.11
75886;BME280;64561;44.018;10.144;2023-02-15T12:22:52;102953.34;;;10.91;77.96
75886;BME280;64561;44.018;10.144;2023-02-15T12:25:32;102954.06;;;10.89;77.24
75886;BME280;64561;44.018;10.144;2023-02-15T12:27:59;102960.97;;;10.75;77.13
75886;BME280;64561;44.018;10.144;2023-02-15T12:30:30;102961.56;;;10.71;78.18
75886;BME280;64561;44.018;10.144;2023-02-15T12:32:59;102961.38;;;10.68;78.08
75886;BME280;64561;44.018;10.144;2023-02-15T12:35:34;102960.25;;;10.63;78.92
75886;BME280;64561;44.018;10.144;2023-02-15T12:40:38;102961.75;;;10.59;78.60
75886;BME280;64561;44.018;10.144;2023-02-15T12:43:25;102952.75;;;10.51;78.69
75886;BME280;64561;44.018;10.144;2023-02-15T12:45:52;102949.38;;;10.52;78.82
75886;BME280;64561;44.018;10.144;2023-02-15T12:48:20;102948.50;;;10.51;78.37
75886;BME280;64561;44.018;10.144;2023-02-15T12:50:48;102938.97;;;10.49;79.59
75886;BME280;64561;44.018;10.144;2023-02-15T12:53:34;102944.44;;;10.55;78.71
75886;BME280;64561;44.018;10.144;2023-02-15T12:56:04;102941.34;;;10.46;78.48
75886;BME280;64561;44.018;10.144;2023-02-15T13:06:20;102932.75;;;10.30;79.30
75886;BME280;64561;44.018;10.144;2023-02-15T13:08:52;102920.84;;;10.31;79.86
75886;BME280;64561;44.018;10.144;2023-02-15T13:11:30;102924.47;;;10.35;80.14
75886;BME280;64561;44.018;10.144;2023-02-15T13:14:03;102924.41;;;10.48;80.18
75886;BME280;64561;44.018;10.144;2023-02-15T13:16:44;102917.16;;;10.56;78.68
75886;BME280;64561;44.018;10.144;2023-02-15T13:19:19;102910.38;;;10.56;79.66
75886;BME280;64561;44.018;10.144;2023-02-15T13:21:51;102903.81;;;10.61;80.20
75886;BME280;64561;44.018;10.144;2023-02-15T13:24:24;102909.81;;;10.76;78.56
75886;BME280;64561;44.018;10.144;2023-02-15T13:26:54;102913.47;;;10.80;78.41
75886;BME280;64561;44.018;10.144;2023-02-15T13:29:43;102909.13;;;10.79;78.58
75886;BME280;64561;44.018;10.144;2023-02-15T13:34:43;102906.19;;;10.88;78.62
75886;BME280;64561;44.018;10.144;2023-02-15T13:40:15;102899.22;;;10.85;77.88
75886;BME280;64561;44.018;10.144;2023-02-15T13:54:06;102880.13;;;11.26;76.95
75886;BME280;64561;44.018;10.144;2023-02-15T13:56:55;102890.66;;;11.47;76.11
75886;BME280;64561;44.018;10.144;2023-02-15T14:10:59;102876.50;;;11.54;76.24
75886;BME280;64561;44.018;10.144;2023-02-15T14:16:16;102879.53;;;11.47;76.97
75886;BME280;64561;44.018;10.144;2023-02-15T14:19:12;102876.50;;;11.37;77.30
75886;BME280;64561;44.018;10.144;2023-02-15T14:21:48;102876.16;;;11.31;78.54
75886;BME280;64561;44.018;10.144;2023-02-15T14:30:09;102880.47;;;11.32;78.50
75886;BME280;64561;44.018;10.144;2023-02-15T14:32:46;102875.19;;;11.29;78.61
75886;BME280;64561;44.018;10.144;2023-02-15T14:35:19;102880.53;;;11.17;79.38
75886;BME280;64561;44.018;10.144;2023-02-15T14:49:13;102890.78;;;10.42;83.25
75886;BME280;64561;44.018;10.144;2023-02-15T14:56:47;102888.84;;;10.10;84.80
75886;BME280;64561;44.018;10.144;2023-02-15T15:05:03;102897.00;;;9.89;85.65
75886;BME280;64561;44.018;10.144;2023-02-15T15:07:38;102894.00;;;9.81;86.49
75886;BME280;64561;44.018;10.144;2023-02-15T15:15:13;102898.78;;;9.90;86.65
75886;BME280;64561;44.018;10.144;2023-02-15T15:17:55;102908.47;;;9.81;87.29
75886;BME280;64561;44.018;10.144;2023-02-15T15:25:47;102904.91;;;9.79;87.16
75886;BME280;64561;44.018;10.144;2023-02-15T15:31:17;102916.03;;;9.79;86.83
75886;BME280;64561;44.018;10.144;2023-02-15T15:42:24;102908.28;;;9.78;87.13
75886;BME280;64561;44.018;10.144;2023-02-15T15:45:30;102914.28;;;9.78;87.20
75886;BME280;64561;44.018;10.144;2023-02-15T15:48:36;102920.16;;;9.77;87.29
75886;BME280;64561;44.018;10.144;2023-02-15T15:51:27;102914.16;;;9.77;86.85
75886;BME280;64561;44.018;10.144;2023-02-15T15:53:56;102913.97;;;9.74;87.09
75886;BME280;64561;44.018;10.144;2023-02-15T15:56:27;102914.97;;;9.76;86.65
75886;BME280;64561;44.018;10.144;2023-02-15T15:58:59;102921.31;;;9.54;87.46
75886;BME280;64561;44.018;10.144;2023-02-15T16:01:30;102919.34;;;9.50;87.63
75886;BME280;64561;44.018;10.144;2023-02-15T16:03:58;102915.53;;;9.44;87.82
75886;BME280;64561;44.018;10.144;2023-02-15T16:06:36;102912.88;;;9.42;87.95
75886;BME280;64561;44.018;10.144;2023-02-15T16:09:22;102912.59;;;9.37;88.38
75886;BME280;64561;44.018;10.144;2023-02-15T16:11:56;102913.88;;;9.31;88.80